Time;durP1;ratioP1;P1;durP2;ratioP2;P2;SDS_P1;SDS_P2;PMS_P1;PMS_P2;Temp;Humidity;BMP_temperature;BMP_pressure;BME280_temperature;BME280_humidity;BME280_pressure;Samples;Min_cycle;Max_cycle;Signal;HPM_P1;HPM_P2
2022/06/26 03:00:34;;;;;;;1.10;0.50;;;22.00;72.70;;;;;;6143985;22;20379;31
2022/06/26 03:03:02;;;;;;;0.70;0.50;;;22.00;72.70;;;;;;4938066;29;20463;-69
2022/06/26 03:05:29;;;;;;;0.70;0.50;;;22.10;72.40;;;;;;4939089;29;20448;-70
2022/06/26 03:07:57;;;;;;;0.93;0.60;;;22.10;72.40;;;;;;4938737;29;21002;-69
2022/06/26 03:10:24;;;;;;;0.70;0.60;;;22.10;72.30;;;;;;4938903;29;20939;-70
2022/06/26 03:12:51;;;;;;;0.70;0.50;;;22.00;72.20;;;;;;4938892;29;20480;-70
2022/06/26 03:15:19;;;;;;;0.70;0.60;;;22.00;72.30;;;;;;4940315;29;20456;-69
2022/06/26 03:17:47;;;;;;;0.70;0.60;;;22.00;72.50;;;;;;4938859;29;20876;-69
2022/06/26 03:20:17;;;;;;;0.70;0.60;;;21.90;72.70;;;;;;4938415;29;20943;-67
2022/06/26 03:22:44;;;;;;;0.70;0.57;;;21.80;73.30;;;;;;4938874;29;20471;-67
2022/06/26 03:25:11;;;;;;;0.70;0.50;;;21.90;73.40;;;;;;4938873;29;20447;-67
2022/06/26 03:27:38;;;;;;;0.70;0.60;;;21.90;73.20;;;;;;4938733;29;20506;-67
2022/06/26 03:30:07;;;;;;;0.70;0.60;;;21.90;73.10;;;;;;4938619;29;20460;-67
2022/06/26 03:32:33;;;;;;;0.70;0.60;;;21.90;73.20;;;;;;4938428;29;20632;-68
2022/06/26 03:35:00;;;;;;;0.70;0.50;;;21.90;73.10;;;;;;4938578;29;20452;-67
2022/06/26 03:37:28;;;;;;;0.70;0.53;;;21.90;73.20;;;;;;4938483;29;20511;-67
2022/06/26 03:39:55;;;;;;;0.70;0.60;;;21.90;73.40;;;;;;4938472;29;20455;-68
2022/06/26 03:42:21;;;;;;;0.70;0.60;;;21.80;73.90;;;;;;4938331;29;20467;-67
2022/06/26 03:44:48;;;;;;;0.80;0.60;;;21.60;74.50;;;;;;4938389;29;20456;-68
2022/06/26 03:47:15;;;;;;;0.80;0.50;;;21.40;75.00;;;;;;4938365;29;20513;-67
2022/06/26 03:49:41;;;;;;;0.70;0.60;;;21.40;75.40;;;;;;4938316;29;20506;-68
2022/06/26 03:52:08;;;;;;;1.30;0.60;;;21.40;75.20;;;;;;4938116;29;20471;-67
2022/06/26 03:54:36;;;;;;;0.70;0.60;;;21.50;75.30;;;;;;4938158;29;20462;-67
2022/06/26 03:57:04;;;;;;;1.10;0.50;;;21.60;75.00;;;;;;4937843;29;20877;-68
2022/06/26 03:59:31;;;;;;;0.70;0.60;;;21.70;74.80;;;;;;4937361;29;20455;-68
2022/06/26 04:01:57;;;;;;;0.70;0.50;;;21.80;74.50;;;;;;4937539;29;20845;-68
2022/06/26 04:04:24;;;;;;;0.70;0.50;;;21.80;74.10;;;;;;4937714;29;21014;-68
2022/06/26 04:06:51;;;;;;;0.70;0.50;;;21.80;74.00;;;;;;4937700;29;20455;-67
2022/06/26 04:09:18;;;;;;;0.70;0.50;;;21.90;74.00;;;;;;4937902;29;20829;-68
2022/06/26 04:11:46;;;;;;;0.70;0.60;;;22.00;73.80;;;;;;4937772;29;20468;-67
2022/06/26 04:14:12;;;;;;;0.70;0.50;;;22.00;73.70;;;;;;4937760;29;20542;-67
2022/06/26 04:16:39;;;;;;;0.70;0.60;;;22.10;73.60;;;;;;4937740;29;20507;-67
2022/06/26 04:19:06;;;;;;;0.70;0.60;;;22.10;73.60;;;;;;4937734;29;20456;-67
2022/06/26 04:21:32;;;;;;;0.70;0.50;;;22.10;73.50;;;;;;4937637;29;20476;-67
2022/06/26 04:23:59;;;;;;;0.70;0.53;;;22.10;73.60;;;;;;4937636;29;20864;-67
2022/06/26 04:26:26;;;;;;;0.70;0.60;;;22.10;73.50;;;;;;4937287;29;20936;-67
2022/06/26 04:28:54;;;;;;;0.70;0.60;;;22.10;73.40;;;;;;4937290;29;20959;-68
2022/06/26 04:31:20;;;;;;;0.70;0.50;;;22.10;73.30;;;;;;4937406;29;20500;-67
2022/06/26 04:33:47;;;;;;;0.70;0.50;;;22.10;73.30;;;;;;4937385;29;20483;-68
2022/06/26 04:36:13;;;;;;;0.70;0.60;;;22.20;73.30;;;;;;4937428;29;20525;-67
2022/06/26 04:38:40;;;;;;;0.80;0.60;;;22.20;73.40;;;;;;4937031;29;21029;-68
2022/06/26 04:43:51;;;;;;;0.70;0.60;;;22.10;73.50;;;;;;4937074;29;20413;-67
2022/06/26 04:46:19;;;;;;;0.70;0.50;;;22.10;73.80;;;;;;4937224;29;20507;-67
2022/06/26 04:48:46;;;;;;;0.70;0.60;;;22.20;73.90;;;;;;4937190;29;20456;-67
2022/06/26 04:51:13;;;;;;;0.70;0.50;;;22.20;73.60;;;;;;4936770;29;20983;-67
2022/06/26 04:53:39;;;;;;;0.63;0.50;;;22.20;73.60;;;;;;4937016;29;20483;-67
2022/06/26 04:56:06;;;;;;;0.70;0.50;;;22.30;73.80;;;;;;4936758;29;20529;-67
2022/06/26 04:58:33;;;;;;;0.70;0.60;;;22.30;73.60;;;;;;4937009;29;20455;-67
2022/06/26 05:00:59;;;;;;;0.70;0.60;;;22.30;73.80;;;;;;4936505;29;20488;-68
2022/06/26 05:03:27;;;;;;;0.70;0.50;;;22.20;73.90;;;;;;4936687;29;20900;-68
2022/06/26 05:05:54;;;;;;;0.70;0.50;;;22.20;74.10;;;;;;4936940;29;20917;-68
2022/06/26 05:08:21;;;;;;;0.80;0.50;;;22.30;74.10;;;;;;4936847;29;20862;-68
2022/06/26 05:10:48;;;;;;;0.80;0.70;;;22.20;73.90;;;;;;4936479;29;20904;-68
2022/06/26 05:13:15;;;;;;;0.70;0.60;;;22.20;74.20;;;;;;4936722;29;20921;-67
2022/06/26 05:15:41;;;;;;;0.70;0.60;;;22.10;73.40;;;;;;4936722;29;20447;-68
2022/06/26 05:18:08;;;;;;;0.70;0.60;;;22.10;74.20;;;;;;4936371;29;20877;-68
2022/06/26 05:20:36;;;;;;;0.80;0.60;;;22.00;74.50;;;;;;4936322;29;20944;-68
2022/06/26 05:23:03;;;;;;;0.80;0.60;;;22.00;74.70;;;;;;4936623;29;20503;-68
2022/06/26 05:25:29;;;;;;;0.90;0.60;;;21.80;74.50;;;;;;4936611;29;20507;-67
2022/06/26 05:27:57;;;;;;;0.70;0.50;;;21.50;75.50;;;;;;4936570;29;20460;-67
2022/06/26 05:30:23;;;;;;;0.70;0.57;;;21.40;76.20;;;;;;4936431;29;20456;-67
2022/06/26 05:32:50;;;;;;;0.70;0.60;;;21.60;76.10;;;;;;4936082;29;20906;-68
2022/06/26 05:35:17;;;;;;;0.87;0.70;;;21.70;75.70;;;;;;4936462;29;20455;-68
2022/06/26 05:37:45;;;;;;;0.70;0.60;;;21.80;75.60;;;;;;4936402;29;20447;-67
2022/06/26 05:40:12;;;;;;;0.90;0.53;;;21.90;75.70;;;;;;4936411;29;20503;-67
2022/06/26 05:42:39;;;;;;;0.60;0.50;;;22.00;75.30;;;;;;4936267;29;20480;-67
2022/06/26 05:45:06;;;;;;;0.70;0.60;;;22.10;75.00;;;;;;4936348;29;20455;-67
2022/06/26 05:47:33;;;;;;;0.70;0.50;;;22.20;75.10;;;;;;4936509;29;20452;-67
2022/06/26 05:50:00;;;;;;;0.77;0.60;;;22.30;74.50;;;;;;4936421;29;20448;-68
2022/06/26 05:52:26;;;;;;;0.70;0.50;;;22.40;74.40;;;;;;4936182;29;20482;-68
2022/06/26 05:54:54;;;;;;;0.70;0.60;;;22.50;74.30;;;;;;4936193;29;20530;-67
2022/06/26 05:57:21;;;;;;;0.70;0.50;;;22.80;73.90;;;;;;4937090;29;20448;-66
2022/06/26 05:59:48;;;;;;;0.70;0.60;;;23.10;73.20;;;;;;4936163;29;20444;-66
2022/06/26 06:02:14;;;;;;;0.80;0.50;;;23.50;72.00;;;;;;4935749;29;20491;-67
2022/06/26 06:04:41;;;;;;;0.70;0.60;;;23.80;70.60;;;;;;4936183;29;20515;-67
2022/06/26 06:07:08;;;;;;;0.70;0.60;;;24.00;69.90;;;;;;4936087;29;20476;-66
2022/06/26 06:09:35;;;;;;;0.70;0.50;;;24.30;69.00;;;;;;4935770;29;20944;-67
2022/06/26 06:12:03;;;;;;;0.70;0.60;;;24.50;68.80;;;;;;4936024;29;20471;-66
2022/06/26 06:14:31;;;;;;;0.70;0.50;;;24.50;68.20;;;;;;4935687;29;21069;-67
2022/06/26 06:17:35;;;;;;;0.70;0.60;;;24.40;68.00;;;;;;4936056;29;20498;-67
2022/06/26 06:19:44;;;;;;;0.90;0.70;;;24.00;69.20;;;;;;4935557;29;20447;-67
2022/06/26 06:22:11;;;;;;;0.70;0.50;;;23.90;68.60;;;;;;4937149;29;20534;-67
2022/06/26 06:24:38;;;;;;;0.70;0.60;;;23.70;69.30;;;;;;4939783;29;20498;-67
2022/06/26 06:27:06;;;;;;;0.70;0.60;;;23.50;70.20;;;;;;4939786;29;20486;-67
2022/06/26 06:29:33;;;;;;;0.70;0.60;;;23.60;70.00;;;;;;4940221;29;20456;-66
2022/06/26 06:31:59;;;;;;;0.80;0.60;;;23.40;70.10;;;;;;4939532;29;20471;-67
2022/06/26 06:34:26;;;;;;;0.70;0.60;;;23.40;70.90;;;;;;4939490;29;20490;-66
2022/06/26 06:36:53;;;;;;;0.70;0.60;;;23.30;70.80;;;;;;4939530;29;20510;-67
2022/06/26 06:39:20;;;;;;;0.70;0.60;;;23.10;70.50;;;;;;4939525;29;20459;-66
2022/06/26 06:41:47;;;;;;;0.70;0.57;;;22.80;71.60;;;;;;4939096;29;20482;-66
2022/06/26 06:44:15;;;;;;;0.77;0.60;;;22.90;71.60;;;;;;4939465;29;20444;-66
2022/06/26 06:46:42;;;;;;;0.90;0.60;;;23.10;70.70;;;;;;4939417;29;20487;-66
2022/06/26 06:49:08;;;;;;;0.70;0.60;;;23.50;70.50;;;;;;4939379;29;20456;-66
2022/06/26 06:51:35;;;;;;;0.70;0.50;;;23.90;67.60;;;;;;4939261;29;20543;-67
2022/06/26 06:54:02;;;;;;;0.70;0.60;;;24.30;67.70;;;;;;4939230;29;20479;-66
2022/06/26 06:56:29;;;;;;;0.70;0.50;;;24.30;65.40;;;;;;4939220;29;20483;-66
2022/06/26 06:58:55;;;;;;;0.90;0.60;;;24.20;64.40;;;;;;4938920;29;21007;-66
2022/06/26 07:01:23;;;;;;;0.70;0.60;;;24.20;64.50;;;;;;4938873;29;20479;-66
2022/06/26 07:03:50;;;;;;;0.80;0.60;;;24.60;63.90;;;;;;4939087;29;20451;-66
2022/06/26 07:06:16;;;;;;;0.70;0.60;;;24.90;63.50;;;;;;4939008;29;20452;-66
2022/06/26 07:08:43;;;;;;;0.70;0.50;;;24.80;62.40;;;;;;4938917;29;20523;-66
2022/06/26 07:11:10;;;;;;;0.70;0.50;;;25.00;61.50;;;;;;4938590;29;20859;-67
2022/06/26 07:13:36;;;;;;;0.70;0.60;;;25.30;60.70;;;;;;4938844;29;20483;-67
2022/06/26 07:16:04;;;;;;;0.70;0.50;;;25.60;59.30;;;;;;4938900;29;20857;-66
2022/06/26 07:18:32;;;;;;;0.70;0.50;;;25.60;59.80;;;;;;4938865;29;20459;-67
2022/06/26 07:20:58;;;;;;;0.70;0.50;;;25.80;60.70;;;;;;4938756;29;20463;-67
2022/06/26 07:23:25;;;;;;;0.70;0.50;;;25.90;58.80;;;;;;4938784;29;20495;-67
2022/06/26 07:25:52;;;;;;;0.70;0.50;;;26.10;59.80;;;;;;4938736;29;20452;-67
2022/06/26 07:28:18;;;;;;;0.80;0.60;;;26.20;59.60;;;;;;4938690;29;20508;-66
2022/06/26 07:30:45;;;;;;;0.70;0.50;;;25.90;61.10;;;;;;4938549;29;20468;-67
2022/06/26 07:35:55;;;;;;;0.80;0.57;;;25.80;61.10;;;;;;4938021;29;20526;-69
2022/06/26 07:38:21;;;;;;;0.83;0.50;;;26.00;61.00;;;;;;4938219;29;21015;-68
2022/06/26 07:40:48;;;;;;;0.80;0.60;;;26.30;59.40;;;;;;4938225;29;20993;-68
2022/06/26 07:43:15;;;;;;;0.70;0.50;;;26.20;61.20;;;;;;4938123;29;20868;-68
2022/06/26 07:45:41;;;;;;;0.70;0.50;;;26.30;61.80;;;;;;4938407;29;20460;-68
2022/06/26 07:48:08;;;;;;;0.70;0.50;;;26.50;59.20;;;;;;4938300;29;20451;-68
2022/06/26 07:50:35;;;;;;;0.70;0.60;;;26.70;58.30;;;;;;4937924;29;20796;-68
2022/06/26 07:53:03;;;;;;;0.80;0.60;;;26.90;59.00;;;;;;4937877;29;20799;-68
2022/06/26 07:55:30;;;;;;;0.70;0.60;;;27.00;58.40;;;;;;4938556;29;20499;-68
2022/06/26 07:57:57;;;;;;;0.70;0.60;;;27.10;57.50;;;;;;4938160;29;20451;-68
2022/06/26 08:00:24;;;;;;;0.70;0.50;;;27.10;57.90;;;;;;4938029;29;20539;-68
2022/06/26 08:02:51;;;;;;;0.70;0.60;;;27.30;57.60;;;;;;4937680;29;20558;-68
2022/06/26 08:05:17;;;;;;;0.70;0.60;;;27.30;58.00;;;;;;4937992;29;20480;-68
2022/06/26 08:07:44;;;;;;;0.70;0.60;;;27.20;59.20;;;;;;4937645;29;20507;-68
2022/06/26 08:10:12;;;;;;;0.70;0.60;;;27.10;60.00;;;;;;4938141;29;20499;-69
2022/06/26 08:12:39;;;;;;;0.70;0.50;;;27.30;57.30;;;;;;4937751;29;20530;-68
2022/06/26 08:15:07;;;;;;;0.70;0.50;;;27.40;58.10;;;;;;4937834;29;20551;-68
2022/06/26 08:17:34;;;;;;;0.70;0.60;;;27.10;58.70;;;;;;4937967;29;20519;-68
2022/06/26 08:20:01;;;;;;;0.70;0.50;;;26.60;60.50;;;;;;4937446;29;21018;-68
2022/06/26 08:22:27;;;;;;;0.70;0.60;;;26.60;60.40;;;;;;4937676;29;20486;-68
2022/06/26 08:24:54;;;;;;;0.80;0.63;;;26.80;58.50;;;;;;4937648;29;20448;-68
2022/06/26 08:27:22;;;;;;;0.70;0.50;;;26.90;59.20;;;;;;4937590;29;20456;-68
2022/06/26 08:29:48;;;;;;;0.70;0.50;;;26.70;60.10;;;;;;4937513;29;20456;-68
2022/06/26 08:32:15;;;;;;;0.70;0.60;;;26.60;59.70;;;;;;4937407;29;20547;-68
2022/06/26 08:34:42;;;;;;;0.70;0.50;;;26.30;59.60;;;;;;4937373;29;20901;-68
2022/06/26 08:37:09;;;;;;;0.70;0.50;;;26.00;62.10;;;;;;4937430;29;20485;-68
2022/06/26 08:39:36;;;;;;;0.70;0.60;;;26.10;61.90;;;;;;4937367;29;20511;-68
2022/06/26 08:42:04;;;;;;;0.70;0.50;;;26.30;61.60;;;;;;4937290;29;20555;-68
2022/06/26 08:44:33;;;;;;;0.80;0.60;;;26.50;61.50;;;;;;4937041;29;20466;-68
2022/06/26 08:47:03;;;;;;;0.70;0.60;;;26.50;60.60;;;;;;4937203;29;20503;-68
2022/06/26 08:49:30;;;;;;;0.70;0.50;;;26.60;59.30;;;;;;4937129;29;20455;-68
2022/06/26 08:51:56;;;;;;;0.70;0.60;;;26.90;59.80;;;;;;4937090;29;20518;-68
2022/06/26 08:54:24;;;;;;;0.70;0.60;;;27.00;58.40;;;;;;4936938;29;20535;-68
2022/06/26 08:56:51;;;;;;;0.90;0.60;;;27.30;57.90;;;;;;4937075;29;20503;-68
2022/06/26 08:59:19;;;;;;;0.87;0.60;;;27.20;58.80;;;;;;4936730;29;20940;-68
2022/06/26 09:01:47;;;;;;;0.70;0.60;;;27.00;58.80;;;;;;4936604;29;20695;-68
2022/06/26 09:04:14;;;;;;;0.70;0.60;;;26.70;58.70;;;;;;4936923;29;20506;-68
2022/06/26 09:06:43;;;;;;;0.70;0.50;;;26.90;60.30;;;;;;4936941;29;20511;-68
2022/06/26 09:09:18;;;;;;;0.70;0.60;;;26.70;59.10;;;;;;4936622;29;20948;-68
2022/06/26 09:11:46;;;;;;;0.70;0.60;;;26.40;59.00;;;;;;4936750;29;20477;-68
2022/06/26 09:14:14;;;;;;;0.93;0.60;;;26.20;60.30;;;;;;4936903;29;20494;-70
2022/06/26 09:16:43;;;;;;;0.70;0.60;;;26.60;61.60;;;;;;4994788;23;20493;-73
2022/06/26 09:19:13;;;;;;;0.70;0.60;;;26.90;60.50;;;;;;4993673;28;20449;-73
2022/06/26 09:21:41;;;;;;;0.80;0.60;;;27.30;57.60;;;;;;4993230;28;20848;-73
2022/06/26 09:24:10;;;;;;;0.70;0.60;;;27.40;59.00;;;;;;4993754;28;20504;-73
2022/06/26 09:26:37;;;;;;;0.70;0.60;;;27.40;57.80;;;;;;4993158;28;20503;-73
2022/06/26 09:29:09;;;;;;;0.90;0.60;;;27.60;57.60;;;;;;4993457;28;20503;-73
2022/06/26 09:31:38;;;;;;;0.70;0.60;;;27.80;57.60;;;;;;4993982;28;20449;-73
2022/06/26 09:34:05;;;;;;;1.10;0.50;;;28.00;55.90;;;;;;4993094;28;21027;-73
2022/06/26 09:36:34;;;;;;;0.70;0.50;;;28.20;55.40;;;;;;4993230;28;20491;-73
2022/06/26 09:39:00;;;;;;;0.70;0.50;;;28.40;54.90;;;;;;4993355;28;20885;-74
2022/06/26 09:41:31;;;;;;;0.70;0.57;;;28.50;55.50;;;;;;4993010;28;20932;-74
2022/06/26 09:43:58;;;;;;;0.70;0.50;;;28.60;55.40;;;;;;4993000;28;20940;-74
2022/06/26 09:46:30;;;;;;;0.70;0.50;;;28.60;55.60;;;;;;4993324;28;20465;-74
2022/06/26 09:48:58;;;;;;;0.70;0.50;;;28.30;56.10;;;;;;4993350;28;20520;-73
2022/06/26 09:51:25;;;;;;;0.70;0.50;;;28.10;56.00;;;;;;4993337;28;20914;-73
2022/06/26 09:53:54;;;;;;;0.70;0.50;;;28.20;55.20;;;;;;4992814;28;20953;-74
2022/06/26 09:56:21;;;;;;;0.80;0.60;;;28.30;55.70;;;;;;4992572;28;20465;-73
2022/06/26 09:58:48;;;;;;;0.70;0.50;;;28.00;56.60;;;;;;4992811;28;20489;-74
2022/06/26 10:06:47;;;;;;;0.80;0.50;;;27.40;57.30;;;;;;4994126;28;20448;-74
2022/06/26 10:09:17;;;;;;;0.70;0.50;;;27.30;58.60;;;;;;4993180;28;20449;-74
2022/06/26 10:11:45;;;;;;;0.70;0.60;;;27.60;58.20;;;;;;4993032;28;20532;-73
2022/06/26 10:14:16;;;;;;;0.90;0.60;;;27.70;56.40;;;;;;4992721;28;20992;-74
2022/06/26 10:17:09;;;;;;;0.70;0.50;;;27.60;58.20;;;;;;4992613;28;20534;-74
2022/06/26 10:19:43;;;;;;;0.70;0.70;;;27.40;58.50;;;;;;4989213;28;20461;-74
2022/06/26 10:22:10;;;;;;;0.70;0.50;;;27.50;58.50;;;;;;4993165;28;20917;-74
2022/06/26 10:24:49;;;;;;;1.23;0.50;;;27.60;58.50;;;;;;4992868;28;20455;-74
2022/06/26 10:27:15;;;;;;;0.70;0.50;;;27.90;59.10;;;;;;4992966;28;20472;-73
2022/06/26 10:29:42;;;;;;;0.70;0.60;;;28.20;58.20;;;;;;4992905;28;20499;-74
2022/06/26 10:32:09;;;;;;;0.70;0.50;;;28.20;58.30;;;;;;4992995;28;20452;-74
2022/06/26 10:34:37;;;;;;;0.70;0.50;;;27.90;56.80;;;;;;4992321;28;21069;-74
2022/06/26 10:37:05;;;;;;;0.70;0.50;;;28.20;55.80;;;;;;4992823;28;20547;-74
2022/06/26 10:39:46;;;;;;;0.70;0.50;;;28.40;56.10;;;;;;4992871;28;20457;-72
2022/06/26 10:45:06;;;;;;;0.70;0.50;;;28.60;57.00;;;;;;4992804;28;20409;-74
2022/06/26 10:47:45;;;;;;;0.70;0.50;;;29.00;56.00;;;;;;4992912;28;20468;-77
2022/06/26 10:50:31;;;;;;;0.70;0.60;;;29.00;56.80;;;;;;4993181;28;20449;-74
2022/06/26 10:53:15;;;;;;;0.80;0.60;;;28.90;56.00;;;;;;4992679;28;20433;-74
2022/06/26 10:55:45;;;;;;;0.70;0.50;;;28.70;57.20;;;;;;4992512;28;20536;-74
2022/06/26 10:58:19;;;;;;;0.70;0.57;;;28.80;56.30;;;;;;4992987;28;20868;-74
2022/06/26 11:00:46;;;;;;;0.70;0.60;;;29.00;56.90;;;;;;4992385;28;20543;-74
2022/06/26 11:03:14;;;;;;;0.70;0.50;;;29.10;56.30;;;;;;4992918;28;20445;-74
2022/06/26 11:05:51;;;;;;;0.70;0.60;;;29.00;55.40;;;;;;4992549;28;20469;-74
2022/06/26 11:08:23;;;;;;;0.70;0.50;;;28.70;56.40;;;;;;4993976;28;20439;-74
2022/06/26 11:10:51;;;;;;;1.07;0.60;;;28.40;57.40;;;;;;4996201;28;20781;-74
2022/06/26 11:13:18;;;;;;;0.70;0.50;;;28.50;56.90;;;;;;4996030;28;20460;-74
2022/06/26 11:15:45;;;;;;;0.70;0.57;;;28.60;57.10;;;;;;4995693;28;20496;-74
2022/06/26 11:18:12;;;;;;;0.70;0.50;;;28.80;57.50;;;;;;4996065;28;20433;-74
2022/06/26 11:20:49;;;;;;;0.80;0.60;;;29.10;55.70;;;;;;4996001;28;20580;-74
2022/06/26 11:23:19;;;;;;;0.70;0.50;;;29.40;55.20;;;;;;4995915;28;20448;-74
2022/06/26 11:25:46;;;;;;;0.70;0.50;;;29.30;55.30;;;;;;4995862;28;20547;-74
2022/06/26 11:28:16;;;;;;;0.70;0.50;;;29.20;56.00;;;;;;4995873;28;20448;-74
2022/06/26 11:30:45;;;;;;;0.70;0.50;;;29.00;55.80;;;;;;4995776;28;20488;-74
2022/06/26 11:33:11;;;;;;;0.70;0.53;;;28.80;56.80;;;;;;4995505;28;20959;-74
2022/06/26 11:35:38;;;;;;;0.70;0.50;;;28.90;55.70;;;;;;4995508;28;20485;-74
2022/06/26 11:38:13;;;;;;;0.70;0.60;;;29.00;55.40;;;;;;4995529;28;20453;-74
2022/06/26 11:40:41;;;;;;;0.70;0.50;;;29.00;56.00;;;;;;4995464;28;20531;-73
2022/06/26 11:43:08;;;;;;;0.70;0.60;;;29.20;55.70;;;;;;4995387;28;20445;-74
2022/06/26 11:45:37;;;;;;;0.70;0.60;;;29.20;57.00;;;;;;4995315;28;20548;-73
2022/06/26 11:48:07;;;;;;;0.70;0.50;;;29.40;56.20;;;;;;4994999;28;20971;-74
2022/06/26 11:50:36;;;;;;;0.70;0.60;;;29.60;55.60;;;;;;4995255;28;20452;-74
2022/06/26 11:53:04;;;;;;;0.70;0.50;;;29.70;54.50;;;;;;4995377;28;20453;-73
2022/06/26 11:55:31;;;;;;;0.70;0.50;;;29.90;54.80;;;;;;4995095;28;20519;-73
2022/06/26 11:58:01;;;;;;;0.70;0.50;;;30.00;53.60;;;;;;4995295;28;20457;-74
2022/06/26 12:00:28;;;;;;;1.87;0.60;;;29.80;53.70;;;;;;4995643;28;20448;-74
2022/06/26 12:02:56;;;;;;;0.67;0.50;;;29.90;54.30;;;;;;4995181;28;20457;-74
2022/06/26 12:05:23;;;;;;;0.70;0.60;;;29.80;53.70;;;;;;4995075;28;20441;-74
2022/06/26 12:07:52;;;;;;;0.70;0.50;;;30.00;54.20;;;;;;4994784;28;20449;-74
2022/06/26 12:10:31;;;;;;;0.90;0.60;;;30.00;53.10;;;;;;4994707;28;20457;-74
2022/06/26 12:12:59;;;;;;;1.10;0.50;;;30.10;53.70;;;;;;4995039;28;20433;-74
2022/06/26 12:15:27;;;;;;;0.70;0.50;;;30.20;52.70;;;;;;4994728;28;20492;-74
2022/06/26 12:17:57;;;;;;;0.70;0.60;;;30.30;52.00;;;;;;4994972;28;20511;-73
2022/06/26 12:20:24;;;;;;;0.70;0.50;;;30.30;52.30;;;;;;4994336;28;20540;-74
2022/06/26 12:22:54;;;;;;;0.70;0.50;;;30.10;53.10;;;;;;4994559;28;20445;-74
2022/06/26 12:25:26;;;;;;;1.27;0.50;;;30.00;53.80;;;;;;4994815;28;20441;-75
2022/06/26 12:27:52;;;;;;;0.70;0.50;;;29.80;53.90;;;;;;4994848;28;20504;-75
2022/06/26 12:30:21;;;;;;;0.80;0.60;;;30.00;53.30;;;;;;4994737;28;20476;-74
2022/06/26 12:32:48;;;;;;;0.70;0.50;;;29.90;53.20;;;;;;4994931;28;20449;-76
2022/06/26 12:35:17;;;;;;;0.70;0.50;;;30.00;52.90;;;;;;4995688;28;20535;-74
2022/06/26 12:37:43;;;;;;;0.70;0.50;;;30.00;54.40;;;;;;4996943;28;20444;-78
2022/06/26 12:40:11;;;;;;;0.70;0.50;;;30.10;54.60;;;;;;4998823;28;20508;-77
2022/06/26 12:42:38;;;;;;;0.70;0.50;;;30.20;52.50;;;;;;4998429;28;20453;-76
2022/06/26 12:45:06;;;;;;;0.90;0.60;;;30.20;53.30;;;;;;4995624;28;20512;-78
2022/06/26 12:47:32;;;;;;;0.70;0.50;;;30.10;53.60;;;;;;4995020;28;20465;-75
2022/06/26 12:49:59;;;;;;;0.70;0.50;;;30.10;53.20;;;;;;4994839;28;20879;-74
2022/06/26 12:52:27;;;;;;;0.70;0.50;;;30.20;52.20;;;;;;4994566;28;20968;-75
2022/06/26 12:54:54;;;;;;;0.70;0.57;;;30.40;51.20;;;;;;4994793;28;20453;-75
2022/06/26 12:57:20;;;;;;;0.60;0.50;;;30.60;52.50;;;;;;4994527;28;20527;-75
2022/06/26 12:59:47;;;;;;;0.70;0.60;;;30.30;53.50;;;;;;4994652;28;20499;-75
2022/06/26 13:02:14;;;;;;;0.70;0.50;;;30.40;53.50;;;;;;4994487;28;20485;-75
2022/06/26 13:04:40;;;;;;;0.70;0.60;;;30.40;53.00;;;;;;4994399;28;20452;-76
2022/06/26 13:07:07;;;;;;;0.70;0.50;;;30.30;54.40;;;;;;5001509;28;20512;-77
2022/06/26 13:09:35;;;;;;;0.70;0.50;;;30.50;52.60;;;;;;5005092;28;20454;-80
2022/06/26 13:12:02;;;;;;;0.70;0.50;;;30.60;53.10;;;;;;5004570;28;20500;-77
2022/06/26 13:14:28;;;;;;;0.63;0.50;;;30.50;53.20;;;;;;4994379;28;20449;-76
2022/06/26 13:16:55;;;;;;;0.70;0.53;;;30.70;53.10;;;;;;4998469;28;20489;-76
2022/06/26 13:19:22;;;;;;;0.70;0.50;;;30.50;52.60;;;;;;5001119;28;20449;-75
2022/06/26 13:21:50;;;;;;;0.70;0.50;;;30.60;52.90;;;;;;4998845;28;20455;-81
2022/06/26 13:24:17;;;;;;;0.63;0.50;;;30.60;52.60;;;;;;4997847;28;20445;-79
2022/06/26 13:26:47;;;;;;;0.67;0.50;;;30.60;54.00;;;;;;5000166;28;20465;-77
2022/06/26 13:29:13;;;;;;;0.70;0.50;;;30.80;51.80;;;;;;4998792;28;20976;-80
2022/06/26 13:31:40;;;;;;;0.60;0.50;;;31.00;51.90;;;;;;4999222;28;20453;-79
2022/06/26 13:34:07;;;;;;;0.70;0.50;;;31.00;52.10;;;;;;4998673;28;20507;-80
2022/06/26 13:36:34;;;;;;;0.60;0.50;;;31.10;52.60;;;;;;5000050;28;20496;-77
2022/06/26 13:39:02;;;;;;;0.63;0.50;;;31.10;51.10;;;;;;4999674;28;20481;-80
2022/06/26 13:41:29;;;;;;;0.70;0.50;;;31.20;52.00;;;;;;5002351;28;20475;-80
2022/06/26 13:43:57;;;;;;;0.70;0.60;;;31.30;51.90;;;;;;5001748;28;20445;-78
2022/06/26 13:46:24;;;;;;;0.70;0.50;;;31.40;52.90;;;;;;5002051;28;21031;-81
2022/06/26 13:48:50;;;;;;;0.70;0.60;;;31.50;52.00;;;;;;4995587;28;20872;-77
2022/06/26 13:51:17;;;;;;;0.70;0.50;;;31.60;52.40;;;;;;4994886;28;20449;-80
2022/06/26 13:53:44;;;;;;;0.70;0.60;;;31.80;51.20;;;;;;4994663;28;20449;-79
2022/06/26 13:56:10;;;;;;;0.63;0.50;;;31.80;52.10;;;;;;4999270;28;20493;-78
2022/06/26 13:58:37;;;;;;;0.70;0.60;;;31.80;50.90;;;;;;4994727;28;20504;-77
2022/06/26 14:01:05;;;;;;;0.70;0.50;;;31.90;52.20;;;;;;4996045;28;20453;-78
2022/06/26 14:03:32;;;;;;;0.70;0.50;;;31.90;51.40;;;;;;4995508;28;20457;-78
2022/06/26 14:05:58;;;;;;;0.60;0.50;;;31.70;51.10;;;;;;4995934;28;20473;-79
2022/06/26 14:08:25;;;;;;;0.67;0.50;;;31.70;51.20;;;;;;4995135;28;20449;-78
2022/06/26 14:10:52;;;;;;;0.60;0.50;;;31.60;51.90;;;;;;4994818;28;20465;-79
2022/06/26 14:13:18;;;;;;;0.60;0.50;;;31.70;51.20;;;;;;4994510;28;20940;-78
2022/06/26 14:15:45;;;;;;;0.60;0.50;;;31.70;51.40;;;;;;4994621;28;20642;-78
2022/06/26 14:18:13;;;;;;;0.60;0.50;;;31.60;50.90;;;;;;4994809;28;20511;-78
2022/06/26 14:20:40;;;;;;;0.60;0.50;;;31.50;52.40;;;;;;4995284;28;20952;-78
2022/06/26 14:25:57;;;;;;;0.70;0.50;;;31.70;51.30;;;;;;4995722;28;20918;-78
2022/06/26 14:28:24;;;;;;;0.60;0.50;;;31.90;50.80;;;;;;4994988;28;20438;-78
2022/06/26 14:30:51;;;;;;;0.63;0.50;;;32.10;50.90;;;;;;4993763;28;20905;-78
2022/06/26 14:33:19;;;;;;;0.60;0.50;;;32.10;49.70;;;;;;4993826;28;20944;-78
2022/06/26 14:35:46;;;;;;;0.70;0.50;;;31.60;52.00;;;;;;4994407;28;20559;-78
2022/06/26 14:38:14;;;;;;;0.60;0.50;;;31.80;51.70;;;;;;4993600;28;20998;-77
2022/06/26 14:40:41;;;;;;;0.70;0.50;;;31.80;50.90;;;;;;4995690;28;20488;-78
2022/06/26 14:43:08;;;;;;;0.70;0.53;;;31.90;50.80;;;;;;4996637;28;20523;-78
2022/06/26 14:45:35;;;;;;;0.60;0.50;;;32.00;50.40;;;;;;4997906;28;20461;-78
2022/06/26 14:48:01;;;;;;;0.60;0.50;;;31.80;51.20;;;;;;4997222;28;20449;-75
2022/06/26 14:50:29;;;;;;;0.63;0.57;;;32.00;50.70;;;;;;4997146;28;20506;-75
2022/06/26 14:52:56;;;;;;;0.70;0.50;;;32.00;50.70;;;;;;4997039;28;20495;-75
2022/06/26 14:55:23;;;;;;;0.70;0.60;;;32.10;50.20;;;;;;4996800;28;20452;-75
2022/06/26 14:57:50;;;;;;;0.60;0.50;;;31.90;50.00;;;;;;4997125;28;20499;-75
2022/06/26 15:00:17;;;;;;;0.60;0.50;;;31.60;50.40;;;;;;4996835;28;20445;-75
2022/06/26 15:02:44;;;;;;;0.70;0.60;;;31.50;51.50;;;;;;4997027;28;20507;-75
2022/06/26 15:05:11;;;;;;;0.70;0.60;;;31.70;51.50;;;;;;4996445;28;21007;-75
2022/06/26 15:07:39;;;;;;;0.70;0.50;;;31.80;50.60;;;;;;4997334;28;20441;-74
2022/06/26 15:10:07;;;;;;;0.70;0.50;;;31.90;50.80;;;;;;4996638;28;20501;-75
2022/06/26 15:12:33;;;;;;;1.17;0.50;;;32.10;50.40;;;;;;4996690;28;20500;-75
2022/06/26 15:15:00;;;;;;;1.10;0.50;;;32.20;50.30;;;;;;4996758;28;20472;-74
2022/06/26 15:17:27;;;;;;;0.60;0.50;;;32.10;50.90;;;;;;5115531;23;20551;-75
2022/06/26 15:19:53;;;;;;;0.60;0.50;;;32.00;51.30;;;;;;4996768;28;20441;-72
2022/06/26 15:22:20;;;;;;;0.70;0.60;;;32.10;50.60;;;;;;4996642;28;20441;-72
2022/06/26 15:24:48;;;;;;;0.60;0.50;;;32.00;50.60;;;;;;4996631;28;20445;-72
2022/06/26 15:27:15;;;;;;;0.60;0.60;;;32.00;50.80;;;;;;4996522;28;20501;-72
2022/06/26 15:29:42;;;;;;;0.70;0.60;;;31.80;51.70;;;;;;4996758;28;20840;-73
2022/06/26 15:32:12;;;;;;;0.70;0.60;;;31.70;51.10;;;;;;4996716;28;20496;-71
2022/06/26 15:34:40;;;;;;;0.70;0.50;;;31.90;51.90;;;;;;4996443;28;20529;-71
2022/06/26 15:37:07;;;;;;;0.90;0.60;;;31.70;52.10;;;;;;4996214;28;20571;-71
2022/06/26 15:39:34;;;;;;;0.60;0.50;;;31.60;51.60;;;;;;4996318;28;20445;-72
2022/06/26 15:42:02;;;;;;;0.70;0.50;;;31.70;52.80;;;;;;4996234;28;20445;-71
2022/06/26 15:44:29;;;;;;;0.70;0.50;;;31.60;52.20;;;;;;4996205;28;20461;-72
2022/06/26 15:46:55;;;;;;;0.70;0.57;;;31.60;52.40;;;;;;4996163;28;20472;-71
2022/06/26 15:49:22;;;;;;;0.70;0.60;;;31.60;51.80;;;;;;4996176;28;20507;-72
2022/06/26 15:51:49;;;;;;;0.70;0.60;;;31.60;52.20;;;;;;4996081;28;20454;-72
2022/06/26 15:54:16;;;;;;;0.70;0.70;;;31.60;52.10;;;;;;4995255;28;20457;-72
2022/06/26 15:56:43;;;;;;;0.70;0.60;;;31.80;52.10;;;;;;4995592;28;20489;-71
2022/06/26 15:59:11;;;;;;;0.70;0.60;;;31.80;52.20;;;;;;4995997;28;20449;-72
2022/06/26 16:01:37;;;;;;;0.70;0.60;;;31.70;51.40;;;;;;4995855;28;20503;-71
2022/06/26 16:04:05;;;;;;;0.67;0.50;;;31.80;51.20;;;;;;4995902;28;20453;-72
2022/06/26 16:06:32;;;;;;;0.70;0.50;;;31.90;51.10;;;;;;4995681;28;21030;-72